Badlands National Park, SD

11:24 PM MDT on October 19, 2014 (GMT -0600)
Philip | Change Station
CLOSE
Current Station
Airport
Location: Philip,
Elevation: 2208 ft
Nearby Weather Stations

Elev 2208 ft 44.05 °N, 101.60 °W | Updated 2 hours ago

Clear
Clear
46 °F
Feels Like 42 °F
N
7
Wind Variable Wind from West

Today
High -- | Low -- °F
--% Chance of Precip.
Yesterday
High -- | Low -- °F
Precip. -- in
7:07 AM 5:57 PM
Waning Crescent, 13% visible
Pressure 30.05 in
Visibility 10.0 miles
Clouds Clear
Windchill 42 °F
Dew Point 38 °F
Humidity 73%
Rainfall 0.00 in
Snow Depth Not available.
UV 0 out of 12
Pollen 2.80 out of 12
Air Quality Not available.
Flu Activity Sporadic
METAR KPHP 200255Z AUTO 27006KT 10SM CLR 08/03 A3004 RMK AO2 SLP175 T00780033 53014 $

More Conditions Fewer Conditions

Pressure 30.05 in
Visibility 10.0 miles
Clouds Clear
Windchill 42 °F
Dew Point 38 °F
Humidity 73%
Rainfall 0.00 in
Snow Depth Not available.
UV 0 out of 12
Pollen 2.80 out of 12
Air Quality Not available.
Flu Activity Sporadic
METAR KPHP 200255Z AUTO 27006KT 10SM CLR 08/03 A3004 RMK AO2 SLP175 T00780033 53014 $

More Conditions Fewer Conditions

10-Day Weather Forecast

Almanac

Astronomy

Oct. 19, 2014 Rise Set
Actual Time 7:07 AM MDT 5:57 PM MDT
Civil Twilight 6:37 AM MDT 6:26 PM MDT
Nautical Twilight 6:04 AM MDT 7:00 PM MDT
Astronomical Twilight 5:31 AM MDT 7:33 PM MDT
Moon 2:54 AM MDT (10/19) 3:57 PM MDT (10/19)
Length of Visible Light 11h 48m
Length of Day
10h 50m
Waning Crescent, 13% of the Moon is Illuminated
Oct 20
Waning Crescent
Oct 23
New
Oct 30
First Quarter
Nov 6
Full
Nov 14
Last Quarter

Yesterday's Extremes

State Highs State Lows

Community

WunderPhotos

Upload Photos

1,763,313 photos uploaded!

Nearby

Snow Depth

Station Depth Elevation
North Rapid Creek 0 in 6130 ft
Blind Park 0 in 6890 ft

Earthquake Activity

City Distance Mag. Time & Date
No recent earthquake activity has been reported nearby.
Minimum magnitude displayed is 2.5.

Coastal Water Temperatures

Place Temperature
No Stations Reporting

Nearby Weather Stations